Sittingbourne, United Kingdom
Current Conditions -  °F | °C
As of 11:50 PM on Monday 20 Oct 2014 (Local Time) from EGMC Reporting Station
Few Clouds Few Clouds  
Wind Chill: 55°   Ceiling: Unl
Heat Index: 55°   Visibility: 6mi
Dew Point: 50°   Wind: 13mph
Humidity: 82%   Direction: 230°SW
Pressure: 29.85"   Gusts: NA
Location:  51.34°N, 0.73°E
Report Text: EGMC 202250Z 23011KT 9999 FEW040 13/10 Q1011
Loading
Personal Weather Stations






























Interactive Weather Map
Tropical Storm Tracking
New forecast layout! Learn more

10-Day Weather Forecast

Advertisements
Track Severe Weather on mobile